sensor_id;sensor_type;location;lat;lon;timestamp;temperature;humidity
47861;HTU21D;33620;52.340;5.984;2023-05-29T00:01:23;13.93;68.91
47861;HTU21D;33620;52.340;5.984;2023-05-29T00:03:50;13.97;68.66
47861;HTU21D;33620;52.340;5.984;2023-05-29T00:06:16;14.00;68.54
47861;HTU21D;33620;52.340;5.984;2023-05-29T00:08:41;14.05;68.29
47861;HTU21D;33620;52.340;5.984;2023-05-29T00:11:07;14.05;68.17
47861;HTU21D;33620;52.340;5.984;2023-05-29T00:13:32;14.06;67.93
47861;HTU21D;33620;52.340;5.984;2023-05-29T00:15:57;14.07;68.07
47861;HTU21D;33620;52.340;5.984;2023-05-29T00:18:24;14.10;67.87
47861;HTU21D;33620;52.340;5.984;2023-05-29T00:20:50;14.12;67.76
47861;HTU21D;33620;52.340;5.984;2023-05-29T00:23:17;14.08;67.61
47861;HTU21D;33620;52.340;5.984;2023-05-29T00:25:43;14.07;67.72
47861;HTU21D;33620;52.340;5.984;2023-05-29T00:28:09;13.97;68.05
47861;HTU21D;33620;52.340;5.984;2023-05-29T00:30:35;13.99;67.83
47861;HTU21D;33620;52.340;5.984;2023-05-29T00:33:00;13.98;67.87
47861;HTU21D;33620;52.340;5.984;2023-05-29T00:35:26;13.95;67.63
47861;HTU21D;33620;52.340;5.984;2023-05-29T00:37:51;13.91;67.87
47861;HTU21D;33620;52.340;5.984;2023-05-29T00:40:16;13.88;67.86
47861;HTU21D;33620;52.340;5.984;2023-05-29T00:42:42;13.83;68.07
47861;HTU21D;33620;52.340;5.984;2023-05-29T00:45:07;13.83;68.05
47861;HTU21D;33620;52.340;5.984;2023-05-29T00:47:33;13.85;68.02
47861;HTU21D;33620;52.340;5.984;2023-05-29T00:49:59;13.84;67.75
47861;HTU21D;33620;52.340;5.984;2023-05-29T00:52:25;13.84;67.80
47861;HTU21D;33620;52.340;5.984;2023-05-29T00:54:51;13.85;67.66
47861;HTU21D;33620;52.340;5.984;2023-05-29T00:57:17;13.77;67.79
47861;HTU21D;33620;52.340;5.984;2023-05-29T00:59:44;13.75;67.91
47861;HTU21D;33620;52.340;5.984;2023-05-29T01:02:10;13.73;67.94
47861;HTU21D;33620;52.340;5.984;2023-05-29T01:04:37;13.73;67.83
47861;HTU21D;33620;52.340;5.984;2023-05-29T01:07:03;13.61;67.68
47861;HTU21D;33620;52.340;5.984;2023-05-29T01:09:29;13.54;68.09
47861;HTU21D;33620;52.340;5.984;2023-05-29T01:12:20;13.46;68.63
47861;HTU21D;33620;52.340;5.984;2023-05-29T01:17:47;13.44;68.35
47861;HTU21D;33620;52.340;5.984;2023-05-29T01:20:28;13.41;68.42
47861;HTU21D;33620;52.340;5.984;2023-05-29T01:28:50;13.38;68.09
47861;HTU21D;33620;52.340;5.984;2023-05-29T01:31:19;13.32;68.25
47861;HTU21D;33620;52.340;5.984;2023-05-29T01:33:52;13.26;68.27
47861;HTU21D;33620;52.340;5.984;2023-05-29T01:36:18;13.25;68.36
47861;HTU21D;33620;52.340;5.984;2023-05-29T01:38:44;13.27;68.41
47861;HTU21D;33620;52.340;5.984;2023-05-29T01:41:10;13.29;68.07
47861;HTU21D;33620;52.340;5.984;2023-05-29T01:43:36;13.26;68.15
47861;HTU21D;33620;52.340;5.984;2023-05-29T01:46:01;13.26;67.94
47861;HTU21D;33620;52.340;5.984;2023-05-29T01:48:27;13.26;67.96
47861;HTU21D;33620;52.340;5.984;2023-05-29T01:50:54;13.25;68.08
47861;HTU21D;33620;52.340;5.984;2023-05-29T01:53:20;13.24;67.68
47861;HTU21D;33620;52.340;5.984;2023-05-29T01:55:46;13.16;68.20
47861;HTU21D;33620;52.340;5.984;2023-05-29T01:58:12;13.15;68.11
47861;HTU21D;33620;52.340;5.984;2023-05-29T02:00:38;13.11;67.98
47861;HTU21D;33620;52.340;5.984;2023-05-29T02:03:05;13.10;68.23
47861;HTU21D;33620;52.340;5.984;2023-05-29T02:05:30;13.11;67.88
47861;HTU21D;33620;52.340;5.984;2023-05-29T02:07:55;13.05;68.20
47861;HTU21D;33620;52.340;5.984;2023-05-29T02:10:21;13.04;68.35
47861;HTU21D;33620;52.340;5.984;2023-05-29T02:12:46;13.08;68.16
47861;HTU21D;33620;52.340;5.984;2023-05-29T02:15:12;13.05;68.06
47861;HTU21D;33620;52.340;5.984;2023-05-29T02:17:37;13.03;68.14
47861;HTU21D;33620;52.340;5.984;2023-05-29T02:20:03;13.01;68.06
47861;HTU21D;33620;52.340;5.984;2023-05-29T02:22:29;12.99;68.53
47861;HTU21D;33620;52.340;5.984;2023-05-29T02:24:55;12.99;68.18
47861;HTU21D;33620;52.340;5.984;2023-05-29T02:27:20;12.99;68.21
47861;HTU21D;33620;52.340;5.984;2023-05-29T02:29:45;12.96;68.09
47861;HTU21D;33620;52.340;5.984;2023-05-29T02:32:11;12.91;68.38
47861;HTU21D;33620;52.340;5.984;2023-05-29T02:34:37;12.88;68.25
47861;HTU21D;33620;52.340;5.984;2023-05-29T02:37:02;12.85;68.52
47861;HTU21D;33620;52.340;5.984;2023-05-29T02:39:28;12.81;68.70
47861;HTU21D;33620;52.340;5.984;2023-05-29T02:41:53;12.76;68.33
47861;HTU21D;33620;52.340;5.984;2023-05-29T02:44:20;12.73;68.69
47861;HTU21D;33620;52.340;5.984;2023-05-29T02:46:45;12.65;68.78
47861;HTU21D;33620;52.340;5.984;2023-05-29T02:49:11;12.60;69.16
47861;HTU21D;33620;52.340;5.984;2023-05-29T02:51:36;12.58;69.27
47861;HTU21D;33620;52.340;5.984;2023-05-29T02:54:02;12.58;69.07
47861;HTU21D;33620;52.340;5.984;2023-05-29T02:56:27;12.55;69.18
47861;HTU21D;33620;52.340;5.984;2023-05-29T02:58:53;12.56;69.21
47861;HTU21D;33620;52.340;5.984;2023-05-29T03:01:19;12.56;69.04
47861;HTU21D;33620;52.340;5.984;2023-05-29T03:03:44;12.58;69.10
47861;HTU21D;33620;52.340;5.984;2023-05-29T03:06:10;12.58;68.81
47861;HTU21D;33620;52.340;5.984;2023-05-29T03:08:37;12.55;68.98
47861;HTU21D;33620;52.340;5.984;2023-05-29T03:11:07;12.52;68.97
47861;HTU21D;33620;52.340;5.984;2023-05-29T03:13:36;12.52;68.90
47861;HTU21D;33620;52.340;5.984;2023-05-29T03:16:01;12.52;68.77
47861;HTU21D;33620;52.340;5.984;2023-05-29T03:18:27;12.51;68.77
47861;HTU21D;33620;52.340;5.984;2023-05-29T03:20:53;12.48;68.79
47861;HTU21D;33620;52.340;5.984;2023-05-29T03:23:19;12.46;69.10
47861;HTU21D;33620;52.340;5.984;2023-05-29T03:25:44;12.45;68.90
47861;HTU21D;33620;52.340;5.984;2023-05-29T03:28:10;12.44;69.01
47861;HTU21D;33620;52.340;5.984;2023-05-29T03:30:35;12.43;68.73
47861;HTU21D;33620;52.340;5.984;2023-05-29T03:33:01;12.41;68.81
47861;HTU21D;33620;52.340;5.984;2023-05-29T03:35:32;12.40;68.81
47861;HTU21D;33620;52.340;5.984;2023-05-29T03:37:57;12.38;68.76
47861;HTU21D;33620;52.340;5.984;2023-05-29T03:40:23;12.34;68.87
47861;HTU21D;33620;52.340;5.984;2023-05-29T03:42:48;12.34;68.94
47861;HTU21D;33620;52.340;5.984;2023-05-29T03:45:14;12.36;68.55
47861;HTU21D;33620;52.340;5.984;2023-05-29T03:47:39;12.23;69.23
47861;HTU21D;33620;52.340;5.984;2023-05-29T03:50:05;12.22;69.11
47861;HTU21D;33620;52.340;5.984;2023-05-29T03:52:31;12.23;69.29
47861;HTU21D;33620;52.340;5.984;2023-05-29T03:54:56;12.26;69.15
47861;HTU21D;33620;52.340;5.984;2023-05-29T03:57:22;12.26;69.07
47861;HTU21D;33620;52.340;5.984;2023-05-29T03:59:47;12.26;69.18
47861;HTU21D;33620;52.340;5.984;2023-05-29T04:02:13;12.25;68.68
47861;HTU21D;33620;52.340;5.984;2023-05-29T04:04:38;12.19;69.16
47861;HTU21D;33620;52.340;5.984;2023-05-29T04:07:05;12.17;69.25
47861;HTU21D;33620;52.340;5.984;2023-05-29T04:09:32;12.19;69.29
47861;HTU21D;33620;52.340;5.984;2023-05-29T04:11:57;12.21;69.21
47861;HTU21D;33620;52.340;5.984;2023-05-29T04:14:24;12.20;69.16
47861;HTU21D;33620;52.340;5.984;2023-05-29T04:16:50;12.18;69.41
47861;HTU21D;33620;52.340;5.984;2023-05-29T04:19:15;12.19;69.29
47861;HTU21D;33620;52.340;5.984;2023-05-29T04:21:41;12.22;69.10
47861;HTU21D;33620;52.340;5.984;2023-05-29T04:24:06;12.23;69.04
47861;HTU21D;33620;52.340;5.984;2023-05-29T04:26:31;12.23;69.13
47861;HTU21D;33620;52.340;5.984;2023-05-29T04:28:57;12.22;69.02
47861;HTU21D;33620;52.340;5.984;2023-05-29T04:31:26;12.23;68.98
47861;HTU21D;33620;52.340;5.984;2023-05-29T04:33:52;12.17;69.00
47861;HTU21D;33620;52.340;5.984;2023-05-29T04:36:23;12.19;69.16
47861;HTU21D;33620;52.340;5.984;2023-05-29T04:38:51;12.17;69.18
47861;HTU21D;33620;52.340;5.984;2023-05-29T04:41:16;12.19;69.28
47861;HTU21D;33620;52.340;5.984;2023-05-29T04:43:41;12.21;69.00
47861;HTU21D;33620;52.340;5.984;2023-05-29T04:46:07;12.23;69.00
47861;HTU21D;33620;52.340;5.984;2023-05-29T04:48:38;12.18;69.44
47861;HTU21D;33620;52.340;5.984;2023-05-29T04:51:06;12.21;69.28
47861;HTU21D;33620;52.340;5.984;2023-05-29T04:53:31;12.25;69.12
47861;HTU21D;33620;52.340;5.984;2023-05-29T04:55:57;12.27;69.07
47861;HTU21D;33620;52.340;5.984;2023-05-29T04:58:25;12.30;69.19
47861;HTU21D;33620;52.340;5.984;2023-05-29T05:00:51;12.27;69.33
47861;HTU21D;33620;52.340;5.984;2023-05-29T05:03:16;12.26;69.17
47861;HTU21D;33620;52.340;5.984;2023-05-29T05:05:42;12.26;69.16
47861;HTU21D;33620;52.340;5.984;2023-05-29T05:08:11;12.31;69.20
47861;HTU21D;33620;52.340;5.984;2023-05-29T05:10:37;12.31;69.02
47861;HTU21D;33620;52.340;5.984;2023-05-29T05:13:02;12.32;68.75
47861;HTU21D;33620;52.340;5.984;2023-05-29T05:15:28;12.34;68.78
47861;HTU21D;33620;52.340;5.984;2023-05-29T05:17:54;12.40;68.60
47861;HTU21D;33620;52.340;5.984;2023-05-29T05:20:19;12.38;68.49
47861;HTU21D;33620;52.340;5.984;2023-05-29T05:22:44;12.42;68.49
47861;HTU21D;33620;52.340;5.984;2023-05-29T05:25:10;12.43;68.21
47861;HTU21D;33620;52.340;5.984;2023-05-29T05:27:36;12.47;68.14
47861;HTU21D;33620;52.340;5.984;2023-05-29T05:30:03;12.47;67.47
47861;HTU21D;33620;52.340;5.984;2023-05-29T05:32:29;12.50;67.78
47861;HTU21D;33620;52.340;5.984;2023-05-29T05:34:54;12.48;67.27
47861;HTU21D;33620;52.340;5.984;2023-05-29T05:37:20;12.49;67.44
47861;HTU21D;33620;52.340;5.984;2023-05-29T05:39:48;12.50;67.28
47861;HTU21D;33620;52.340;5.984;2023-05-29T05:42:14;12.56;66.63
47861;HTU21D;33620;52.340;5.984;2023-05-29T05:44:40;12.58;66.97
47861;HTU21D;33620;52.340;5.984;2023-05-29T05:47:05;12.57;65.92
47861;HTU21D;33620;52.340;5.984;2023-05-29T05:49:31;12.56;66.36
47861;HTU21D;33620;52.340;5.984;2023-05-29T05:51:56;12.60;66.65
47861;HTU21D;33620;52.340;5.984;2023-05-29T05:54:21;12.62;66.40
47861;HTU21D;33620;52.340;5.984;2023-05-29T05:56:47;12.55;65.85
47861;HTU21D;33620;52.340;5.984;2023-05-29T05:59:12;12.64;66.29
47861;HTU21D;33620;52.340;5.984;2023-05-29T06:01:37;12.71;66.09
47861;HTU21D;33620;52.340;5.984;2023-05-29T06:04:03;12.74;66.07
47861;HTU21D;33620;52.340;5.984;2023-05-29T06:06:29;12.70;64.73
47861;HTU21D;33620;52.340;5.984;2023-05-29T06:08:56;12.65;65.28
47861;HTU21D;33620;52.340;5.984;2023-05-29T06:11:23;12.65;65.24
47861;HTU21D;33620;52.340;5.984;2023-05-29T06:13:50;12.61;65.22
47861;HTU21D;33620;52.340;5.984;2023-05-29T06:16:16;12.63;65.12
47861;HTU21D;33620;52.340;5.984;2023-05-29T06:18:42;12.56;65.09
47861;HTU21D;33620;52.340;5.984;2023-05-29T06:21:07;12.63;65.66
47861;HTU21D;33620;52.340;5.984;2023-05-29T06:23:34;12.63;65.11
47861;HTU21D;33620;52.340;5.984;2023-05-29T06:26:01;12.70;65.17
47861;HTU21D;33620;52.340;5.984;2023-05-29T06:28:26;12.72;65.14
47861;HTU21D;33620;52.340;5.984;2023-05-29T06:30:52;12.74;65.48
47861;HTU21D;33620;52.340;5.984;2023-05-29T06:33:17;12.84;65.52
47861;HTU21D;33620;52.340;5.984;2023-05-29T06:35:43;12.92;65.24
47861;HTU21D;33620;52.340;5.984;2023-05-29T06:38:09;12.96;65.46
47861;HTU21D;33620;52.340;5.984;2023-05-29T06:40:34;12.99;65.14
47861;HTU21D;33620;52.340;5.984;2023-05-29T06:43:00;13.03;65.49
47861;HTU21D;33620;52.340;5.984;2023-05-29T06:45:25;13.06;64.62
47861;HTU21D;33620;52.340;5.984;2023-05-29T06:47:51;13.02;64.18
47861;HTU21D;33620;52.340;5.984;2023-05-29T06:50:16;13.03;64.64
47861;HTU21D;33620;52.340;5.984;2023-05-29T06:52:41;13.10;64.56
47861;HTU21D;33620;52.340;5.984;2023-05-29T06:55:07;13.10;64.63
47861;HTU21D;33620;52.340;5.984;2023-05-29T06:57:32;13.12;63.98
47861;HTU21D;33620;52.340;5.984;2023-05-29T06:59:58;13.11;63.82
47861;HTU21D;33620;52.340;5.984;2023-05-29T07:02:23;13.11;63.85
47861;HTU21D;33620;52.340;5.984;2023-05-29T07:04:48;13.01;63.40
47861;HTU21D;33620;52.340;5.984;2023-05-29T07:07:14;13.08;64.16
47861;HTU21D;33620;52.340;5.984;2023-05-29T07:09:39;13.07;63.34
47861;HTU21D;33620;52.340;5.984;2023-05-29T07:12:05;13.11;63.76
47861;HTU21D;33620;52.340;5.984;2023-05-29T07:14:31;13.19;63.69
47861;HTU21D;33620;52.340;5.984;2023-05-29T07:16:56;13.25;63.71
47861;HTU21D;33620;52.340;5.984;2023-05-29T07:19:21;13.32;63.42
47861;HTU21D;33620;52.340;5.984;2023-05-29T07:21:47;13.35;63.09
47861;HTU21D;33620;52.340;5.984;2023-05-29T07:24:12;13.34;62.93
47861;HTU21D;33620;52.340;5.984;2023-05-29T07:26:38;13.31;63.07
47861;HTU21D;33620;52.340;5.984;2023-05-29T07:29:03;13.40;63.74
47861;HTU21D;33620;52.340;5.984;2023-05-29T07:31:28;13.44;62.50
47861;HTU21D;33620;52.340;5.984;2023-05-29T07:33:54;13.40;63.05
47861;HTU21D;33620;52.340;5.984;2023-05-29T07:36:20;13.39;62.06
47861;HTU21D;33620;52.340;5.984;2023-05-29T07:38:45;13.41;62.89
47861;HTU21D;33620;52.340;5.984;2023-05-29T07:41:11;13.47;62.21
47861;HTU21D;33620;52.340;5.984;2023-05-29T07:43:36;13.46;62.41
47861;HTU21D;33620;52.340;5.984;2023-05-29T07:46:03;13.54;62.73
47861;HTU21D;33620;52.340;5.984;2023-05-29T07:48:28;13.64;62.76
47861;HTU21D;33620;52.340;5.984;2023-05-29T07:50:54;13.69;61.78
47861;HTU21D;33620;52.340;5.984;2023-05-29T07:53:19;13.71;61.45
47861;HTU21D;33620;52.340;5.984;2023-05-29T07:55:45;13.73;61.26
47861;HTU21D;33620;52.340;5.984;2023-05-29T07:58:10;13.76;60.97
47861;HTU21D;33620;52.340;5.984;2023-05-29T08:00:36;13.79;61.07
47861;HTU21D;33620;52.340;5.984;2023-05-29T08:03:03;13.79;61.22
47861;HTU21D;33620;52.340;5.984;2023-05-29T08:05:29;13.91;61.92
47861;HTU21D;33620;52.340;5.984;2023-05-29T08:07:54;14.01;61.42
47861;HTU21D;33620;52.340;5.984;2023-05-29T08:10:20;14.12;61.02
47861;HTU21D;33620;52.340;5.984;2023-05-29T08:12:45;14.20;60.71
47861;HTU21D;33620;52.340;5.984;2023-05-29T08:15:12;14.34;60.28
47861;HTU21D;33620;52.340;5.984;2023-05-29T08:17:38;14.40;59.77
47861;HTU21D;33620;52.340;5.984;2023-05-29T08:20:03;14.47;58.96
47861;HTU21D;33620;52.340;5.984;2023-05-29T08:22:32;14.57;59.29
47861;HTU21D;33620;52.340;5.984;2023-05-29T08:24:59;14.59;58.36
47861;HTU21D;33620;52.340;5.984;2023-05-29T08:27:24;14.67;58.99
47861;HTU21D;33620;52.340;5.984;2023-05-29T08:29:50;14.73;58.35
47861;HTU21D;33620;52.340;5.984;2023-05-29T08:32:15;14.80;56.29
47861;HTU21D;33620;52.340;5.984;2023-05-29T08:34:41;14.85;56.39
47861;HTU21D;33620;52.340;5.984;2023-05-29T08:37:07;14.93;56.27
47861;HTU21D;33620;52.340;5.984;2023-05-29T08:39:32;15.06;56.40
47861;HTU21D;33620;52.340;5.984;2023-05-29T08:42:11;15.13;55.50
47861;HTU21D;33620;52.340;5.984;2023-05-29T08:44:39;15.09;53.61
47861;HTU21D;33620;52.340;5.984;2023-05-29T08:47:06;14.98;54.39
47861;HTU21D;33620;52.340;5.984;2023-05-29T08:49:40;15.00;55.57
47861;HTU21D;33620;52.340;5.984;2023-05-29T08:52:14;15.04;55.39
47861;HTU21D;33620;52.340;5.984;2023-05-29T08:54:40;15.04;55.88
47861;HTU21D;33620;52.340;5.984;2023-05-29T08:57:06;15.19;55.71
47861;HTU21D;33620;52.340;5.984;2023-05-29T08:59:32;15.32;55.30
47861;HTU21D;33620;52.340;5.984;2023-05-29T09:01:58;15.44;55.00
47861;HTU21D;33620;52.340;5.984;2023-05-29T09:04:23;15.51;55.42
47861;HTU21D;33620;52.340;5.984;2023-05-29T09:06:49;15.59;54.87
47861;HTU21D;33620;52.340;5.984;2023-05-29T09:09:18;15.69;54.36
47861;HTU21D;33620;52.340;5.984;2023-05-29T09:11:43;15.74;53.45
47861;HTU21D;33620;52.340;5.984;2023-05-29T09:14:32;15.86;53.27
47861;HTU21D;33620;52.340;5.984;2023-05-29T09:16:59;15.91;53.03
47861;HTU21D;33620;52.340;5.984;2023-05-29T09:19:25;15.97;52.80
47861;HTU21D;33620;52.340;5.984;2023-05-29T09:21:51;15.98;52.44
47861;HTU21D;33620;52.340;5.984;2023-05-29T09:24:16;16.08;52.83
47861;HTU21D;33620;52.340;5.984;2023-05-29T09:26:49;16.12;52.87
47861;HTU21D;33620;52.340;5.984;2023-05-29T09:29:15;16.12;51.66
47861;HTU21D;33620;52.340;5.984;2023-05-29T09:31:46;16.01;52.43
47861;HTU21D;33620;52.340;5.984;2023-05-29T09:34:12;16.10;52.04
47861;HTU21D;33620;52.340;5.984;2023-05-29T09:36:38;16.21;52.08
47861;HTU21D;33620;52.340;5.984;2023-05-29T09:39:03;16.22;52.19
47861;HTU21D;33620;52.340;5.984;2023-05-29T09:41:29;16.36;52.42
47861;HTU21D;33620;52.340;5.984;2023-05-29T09:43:56;16.33;51.52
47861;HTU21D;33620;52.340;5.984;2023-05-29T09:46:25;16.44;51.46
47861;HTU21D;33620;52.340;5.984;2023-05-29T09:48:51;16.52;52.23
47861;HTU21D;33620;52.340;5.984;2023-05-29T09:51:21;16.46;50.67
47861;HTU21D;33620;52.340;5.984;2023-05-29T09:53:47;16.58;51.96
47861;HTU21D;33620;52.340;5.984;2023-05-29T09:56:15;16.67;50.52
47861;HTU21D;33620;52.340;5.984;2023-05-29T09:58:43;16.52;49.38
47861;HTU21D;33620;52.340;5.984;2023-05-29T10:01:13;16.46;48.84
47861;HTU21D;33620;52.340;5.984;2023-05-29T10:03:41;16.50;49.57
47861;HTU21D;33620;52.340;5.984;2023-05-29T10:06:08;16.47;48.55
47861;HTU21D;33620;52.340;5.984;2023-05-29T10:08:37;16.52;47.35
47861;HTU21D;33620;52.340;5.984;2023-05-29T10:11:05;16.63;47.47
47861;HTU21D;33620;52.340;5.984;2023-05-29T10:13:38;16.71;47.64
47861;HTU21D;33620;52.340;5.984;2023-05-29T10:16:08;16.69;47.19
47861;HTU21D;33620;52.340;5.984;2023-05-29T10:18:38;16.72;47.78
47861;HTU21D;33620;52.340;5.984;2023-05-29T10:21:07;16.84;48.83
47861;HTU21D;33620;52.340;5.984;2023-05-29T10:23:34;16.87;48.94
47861;HTU21D;33620;52.340;5.984;2023-05-29T10:26:08;16.84;47.97
47861;HTU21D;33620;52.340;5.984;2023-05-29T10:28:39;16.78;49.15
47861;HTU21D;33620;52.340;5.984;2023-05-29T10:31:20;16.85;49.29
47861;HTU21D;33620;52.340;5.984;2023-05-29T10:33:56;16.84;47.23
47861;HTU21D;33620;52.340;5.984;2023-05-29T10:36:30;16.80;47.53
47861;HTU21D;33620;52.340;5.984;2023-05-29T10:38:58;16.93;47.47
47861;HTU21D;33620;52.340;5.984;2023-05-29T10:44:01;17.14;47.68
47861;HTU21D;33620;52.340;5.984;2023-05-29T10:49:19;17.24;48.10
47861;HTU21D;33620;52.340;5.984;2023-05-29T10:51:45;17.35;47.57
47861;HTU21D;33620;52.340;5.984;2023-05-29T10:54:10;17.36;45.50
47861;HTU21D;33620;52.340;5.984;2023-05-29T10:56:36;17.40;46.99
47861;HTU21D;33620;52.340;5.984;2023-05-29T10:59:02;17.38;46.58
47861;HTU21D;33620;52.340;5.984;2023-05-29T11:01:29;17.40;46.25
47861;HTU21D;33620;52.340;5.984;2023-05-29T11:06:47;17.58;47.54
47861;HTU21D;33620;52.340;5.984;2023-05-29T11:09:35;17.65;47.60
47861;HTU21D;33620;52.340;5.984;2023-05-29T11:12:16;17.72;47.37
47861;HTU21D;33620;52.340;5.984;2023-05-29T11:14:55;17.70;48.02
47861;HTU21D;33620;52.340;5.984;2023-05-29T11:17:43;17.77;46.95
47861;HTU21D;33620;52.340;5.984;2023-05-29T11:25:23;17.97;45.56
47861;HTU21D;33620;52.340;5.984;2023-05-29T11:27:49;17.98;46.02
47861;HTU21D;33620;52.340;5.984;2023-05-29T11:30:15;18.10;45.99
47861;HTU21D;33620;52.340;5.984;2023-05-29T11:32:42;18.19;45.54
47861;HTU21D;33620;52.340;5.984;2023-05-29T11:35:10;18.21;45.18
47861;HTU21D;33620;52.340;5.984;2023-05-29T11:37:37;18.08;43.50
47861;HTU21D;33620;52.340;5.984;2023-05-29T11:40:04;18.18;44.12
47861;HTU21D;33620;52.340;5.984;2023-05-29T11:42:31;18.15;42.93
47861;HTU21D;33620;52.340;5.984;2023-05-29T11:45:18;18.14;43.33
47861;HTU21D;33620;52.340;5.984;2023-05-29T11:47:52;18.34;45.03
47861;HTU21D;33620;52.340;5.984;2023-05-29T11:50:19;18.39;43.95
47861;HTU21D;33620;52.340;5.984;2023-05-29T11:52:46;18.42;44.29
47861;HTU21D;33620;52.340;5.984;2023-05-29T11:55:11;18.46;44.09
47861;HTU21D;33620;52.340;5.984;2023-05-29T11:57:37;18.47;43.51
47861;HTU21D;33620;52.340;5.984;2023-05-29T12:00:02;18.54;43.09
47861;HTU21D;33620;52.340;5.984;2023-05-29T12:02:31;18.69;44.19
47861;HTU21D;33620;52.340;5.984;2023-05-29T12:05:01;18.69;43.30
47861;HTU21D;33620;52.340;5.984;2023-05-29T12:07:26;18.74;42.53
47861;HTU21D;33620;52.340;5.984;2023-05-29T12:09:51;18.73;42.65
47861;HTU21D;33620;52.340;5.984;2023-05-29T12:12:23;18.83;41.90
47861;HTU21D;33620;52.340;5.984;2023-05-29T12:14:51;18.95;42.50
47861;HTU21D;33620;52.340;5.984;2023-05-29T12:17:16;18.96;42.48
47861;HTU21D;33620;52.340;5.984;2023-05-29T12:19:42;19.01;42.49
47861;HTU21D;33620;52.340;5.984;2023-05-29T12:22:07;19.14;43.58
47861;HTU21D;33620;52.340;5.984;2023-05-29T12:24:34;19.02;42.66
47861;HTU21D;33620;52.340;5.984;2023-05-29T12:27:03;19.11;42.65
47861;HTU21D;33620;52.340;5.984;2023-05-29T12:29:30;19.10;42.15
47861;HTU21D;33620;52.340;5.984;2023-05-29T12:31:59;19.08;43.37
47861;HTU21D;33620;52.340;5.984;2023-05-29T12:34:24;19.11;42.52
47861;HTU21D;33620;52.340;5.984;2023-05-29T12:36:50;19.24;42.32
47861;HTU21D;33620;52.340;5.984;2023-05-29T12:39:15;19.29;40.72
47861;HTU21D;33620;52.340;5.984;2023-05-29T12:41:41;19.28;41.37
47861;HTU21D;33620;52.340;5.984;2023-05-29T12:44:07;19.33;41.42
47861;HTU21D;33620;52.340;5.984;2023-05-29T12:46:39;19.41;40.37
47861;HTU21D;33620;52.340;5.984;2023-05-29T12:49:18;19.36;40.83
47861;HTU21D;33620;52.340;5.984;2023-05-29T12:51:51;19.18;40.95
47861;HTU21D;33620;52.340;5.984;2023-05-29T12:54:17;19.08;41.94
47861;HTU21D;33620;52.340;5.984;2023-05-29T12:56:43;18.85;41.71
47861;HTU21D;33620;52.340;5.984;2023-05-29T12:59:10;18.81;42.15
47861;HTU21D;33620;52.340;5.984;2023-05-29T13:01:36;18.83;42.17
47861;HTU21D;33620;52.340;5.984;2023-05-29T13:04:03;18.84;42.35
47861;HTU21D;33620;52.340;5.984;2023-05-29T13:06:32;18.87;42.16
47861;HTU21D;33620;52.340;5.984;2023-05-29T13:08:57;18.94;41.93
47861;HTU21D;33620;52.340;5.984;2023-05-29T13:11:22;19.02;42.47
47861;HTU21D;33620;52.340;5.984;2023-05-29T13:13:48;19.08;41.99
47861;HTU21D;33620;52.340;5.984;2023-05-29T13:16:13;18.88;41.94
47861;HTU21D;33620;52.340;5.984;2023-05-29T13:18:38;18.93;42.39
47861;HTU21D;33620;52.340;5.984;2023-05-29T13:21:04;18.99;42.76
47861;HTU21D;33620;52.340;5.984;2023-05-29T13:23:29;19.01;42.02
47861;HTU21D;33620;52.340;5.984;2023-05-29T13:25:55;19.11;42.88
47861;HTU21D;33620;52.340;5.984;2023-05-29T13:28:20;19.18;43.06
47861;HTU21D;33620;52.340;5.984;2023-05-29T13:30:46;19.20;42.35
47861;HTU21D;33620;52.340;5.984;2023-05-29T13:33:11;19.20;42.09
47861;HTU21D;33620;52.340;5.984;2023-05-29T13:35:37;19.20;41.52
47861;HTU21D;33620;52.340;5.984;2023-05-29T13:38:02;19.12;40.88
47861;HTU21D;33620;52.340;5.984;2023-05-29T13:40:27;19.18;40.39
47861;HTU21D;33620;52.340;5.984;2023-05-29T13:42:53;19.24;39.98
47861;HTU21D;33620;52.340;5.984;2023-05-29T13:45:19;19.27;40.13
47861;HTU21D;33620;52.340;5.984;2023-05-29T13:47:44;19.20;40.91
47861;HTU21D;33620;52.340;5.984;2023-05-29T13:50:09;19.11;41.58
47861;HTU21D;33620;52.340;5.984;2023-05-29T13:52:35;19.29;42.43
47861;HTU21D;33620;52.340;5.984;2023-05-29T13:55:00;19.36;40.80
47861;HTU21D;33620;52.340;5.984;2023-05-29T13:57:31;19.30;41.56
47861;HTU21D;33620;52.340;5.984;2023-05-29T13:59:57;19.27;41.93
47861;HTU21D;33620;52.340;5.984;2023-05-29T14:02:22;19.43;42.40
47861;HTU21D;33620;52.340;5.984;2023-05-29T14:04:48;19.65;42.02
47861;HTU21D;33620;52.340;5.984;2023-05-29T14:07:14;19.72;40.88
47861;HTU21D;33620;52.340;5.984;2023-05-29T14:09:39;19.76;41.24
47861;HTU21D;33620;52.340;5.984;2023-05-29T14:12:05;19.52;38.84
47861;HTU21D;33620;52.340;5.984;2023-05-29T14:14:32;19.42;38.88
47861;HTU21D;33620;52.340;5.984;2023-05-29T14:16:58;19.56;39.23
47861;HTU21D;33620;52.340;5.984;2023-05-29T14:19:23;19.56;39.42
47861;HTU21D;33620;52.340;5.984;2023-05-29T14:21:50;19.55;39.76
47861;HTU21D;33620;52.340;5.984;2023-05-29T14:24:15;19.63;40.79
47861;HTU21D;33620;52.340;5.984;2023-05-29T14:26:42;19.74;40.78
47861;HTU21D;33620;52.340;5.984;2023-05-29T14:29:10;19.83;40.74
47861;HTU21D;33620;52.340;5.984;2023-05-29T14:31:36;19.80;39.83
47861;HTU21D;33620;52.340;5.984;2023-05-29T14:34:01;19.62;39.70
47861;HTU21D;33620;52.340;5.984;2023-05-29T14:36:27;19.72;40.38
47861;HTU21D;33620;52.340;5.984;2023-05-29T14:38:52;19.71;41.16
47861;HTU21D;33620;52.340;5.984;2023-05-29T14:41:17;19.70;41.84
47861;HTU21D;33620;52.340;5.984;2023-05-29T14:43:43;19.61;40.36
47861;HTU21D;33620;52.340;5.984;2023-05-29T14:46:09;19.57;40.04
47861;HTU21D;33620;52.340;5.984;2023-05-29T14:48:34;19.60;40.81
47861;HTU21D;33620;52.340;5.984;2023-05-29T14:51:00;19.71;40.09
47861;HTU21D;33620;52.340;5.984;2023-05-29T14:53:25;19.80;37.55
47861;HTU21D;33620;52.340;5.984;2023-05-29T14:55:51;19.80;37.76
47861;HTU21D;33620;52.340;5.984;2023-05-29T14:58:16;19.73;39.03
47861;HTU21D;33620;52.340;5.984;2023-05-29T15:00:41;19.70;38.24
47861;HTU21D;33620;52.340;5.984;2023-05-29T15:03:07;19.67;39.94
47861;HTU21D;33620;52.340;5.984;2023-05-29T15:05:32;19.72;39.77
47861;HTU21D;33620;52.340;5.984;2023-05-29T15:07:58;19.86;39.17
47861;HTU21D;33620;52.340;5.984;2023-05-29T15:10:25;19.71;37.60
47861;HTU21D;33620;52.340;5.984;2023-05-29T15:12:52;19.77;38.40
47861;HTU21D;33620;52.340;5.984;2023-05-29T15:15:28;19.74;38.43
47861;HTU21D;33620;52.340;5.984;2023-05-29T15:17:54;19.72;38.61
47861;HTU21D;33620;52.340;5.984;2023-05-29T15:20:25;19.73;37.57
47861;HTU21D;33620;52.340;5.984;2023-05-29T15:22:51;19.75;36.98
47861;HTU21D;33620;52.340;5.984;2023-05-29T15:25:18;19.71;36.41
47861;HTU21D;33620;52.340;5.984;2023-05-29T15:27:44;19.69;35.60
47861;HTU21D;33620;52.340;5.984;2023-05-29T15:32:35;19.58;37.63
47861;HTU21D;33620;52.340;5.984;2023-05-29T15:35:01;19.59;35.62
47861;HTU21D;33620;52.340;5.984;2023-05-29T15:37:26;19.66;37.21